Time;durP1;ratioP1;P1;durP2;ratioP2;P2;SDS_P1;SDS_P2;PMS_P1;PMS_P2;Temp;Humidity;BMP_temperature;BMP_pressure;BME280_temperature;BME280_humidity;BME280_pressure;Samples;Min_cycle;Max_cycle;Signal;HPM_P1;HPM_P2
2021/09/22 00:00:14;;;;;;;1.13;1.08;;;8.60;97.50;;;;;;4925301;29;20048;-90
2021/09/22 00:02:40;;;;;;;1.50;0.95;;;8.60;97.60;;;;;;4925511;29;20040;-91
2021/09/22 00:05:06;;;;;;;1.23;1.13;;;8.60;97.50;;;;;;4925577;29;20055;-91
2021/09/22 00:07:32;;;;;;;1.42;1.20;;;8.60;97.60;;;;;;4942248;29;20027;-90
2021/09/22 00:09:57;;;;;;;1.20;0.93;;;8.60;97.60;;;;;;4942671;29;20059;-91
2021/09/22 00:12:23;;;;;;;1.50;1.40;;;8.60;97.60;;;;;;4941313;29;20039;-91
2021/09/22 00:14:49;;;;;;;1.00;0.90;;;8.60;97.70;;;;;;4941521;29;20059;-91
2021/09/22 00:17:15;;;;;;;1.05;0.95;;;8.60;97.90;;;;;;4925259;29;20039;-90
2021/09/22 00:19:41;;;;;;;1.20;0.88;;;8.60;97.70;;;;;;4942481;29;20102;-91
2021/09/22 00:22:06;;;;;;;1.27;0.98;;;8.60;97.70;;;;;;4925083;29;20039;-91
2021/09/22 00:24:32;;;;;;;0.82;0.82;;;8.60;97.70;;;;;;4923858;29;20032;-91
2021/09/22 00:26:58;;;;;;;2.45;1.00;;;8.60;97.60;;;;;;4923676;29;20183;-91
2021/09/22 00:29:25;;;;;;;0.77;0.65;;;8.60;97.70;;;;;;4923734;29;20178;-91
2021/09/22 00:31:51;;;;;;;1.45;0.65;;;8.60;97.60;;;;;;4939973;29;20432;-91
2021/09/22 00:34:17;;;;;;;0.75;0.75;;;8.60;97.60;;;;;;4939396;29;20043;-91
2021/09/22 00:36:44;;;;;;;1.17;0.90;;;8.60;97.60;;;;;;4922037;29;20051;-90
2021/09/22 00:39:10;;;;;;;1.48;1.23;;;8.60;97.60;;;;;;4939410;29;20040;-90
2021/09/22 00:41:36;;;;;;;1.02;0.93;;;8.60;97.60;;;;;;4937853;29;20039;-91
2021/09/22 00:44:02;;;;;;;1.25;1.15;;;8.60;97.50;;;;;;4922051;29;20043;-90
2021/09/22 00:46:28;;;;;;;1.60;0.90;;;8.60;97.60;;;;;;4922209;29;20148;-91
2021/09/22 00:48:54;;;;;;;1.23;1.08;;;8.60;97.70;;;;;;4939156;29;20039;-91
2021/09/22 00:51:20;;;;;;;1.75;0.93;;;8.60;97.70;;;;;;4938949;29;20032;-91
2021/09/22 00:53:46;;;;;;;1.00;1.00;;;8.60;97.70;;;;;;4921820;29;20380;-91
2021/09/22 00:56:11;;;;;;;1.08;0.98;;;8.60;97.70;;;;;;4922637;29;20063;-90
2021/09/22 00:58:37;;;;;;;0.73;0.65;;;8.60;97.80;;;;;;4921963;29;20090;-91
2021/09/22 01:01:03;;;;;;;1.48;1.00;;;8.60;97.70;;;;;;4922132;29;20043;-90
2021/09/22 01:03:29;;;;;;;1.05;0.98;;;8.60;97.80;;;;;;4932707;29;20036;-91
2021/09/22 01:05:55;;;;;;;1.27;1.17;;;8.60;97.80;;;;;;4955664;29;20040;-91
2021/09/22 01:08:21;;;;;;;1.30;0.98;;;8.60;97.80;;;;;;4956729;29;20099;-90
2021/09/22 01:10:49;;;;;;;0.70;0.70;;;8.60;97.80;;;;;;4949130;29;20039;-90
2021/09/22 01:13:16;;;;;;;1.20;1.10;;;8.60;97.80;;;;;;4938982;29;20094;-91
2021/09/22 01:15:45;;;;;;;1.92;1.00;;;8.60;97.90;;;;;;4921508;29;20043;-90
2021/09/22 01:18:16;;;;;;;1.23;0.93;;;8.60;97.80;;;;;;4938532;29;20055;-91
2021/09/22 01:20:45;;;;;;;1.02;0.93;;;8.60;97.90;;;;;;4921607;29;20046;-91
2021/09/22 01:23:11;;;;;;;1.63;1.20;;;8.50;97.80;;;;;;4938737;29;20073;-91
2021/09/22 01:25:40;;;;;;;0.95;0.88;;;8.60;97.80;;;;;;4921819;29;20078;-90
2021/09/22 01:28:06;;;;;;;0.70;0.70;;;8.60;97.80;;;;;;4940822;29;20039;-91
2021/09/22 01:30:32;;;;;;;0.82;0.77;;;8.60;97.80;;;;;;4927213;29;20039;-90
2021/09/22 01:33:09;;;;;;;0.60;0.60;;;8.60;97.90;;;;;;4926239;29;20491;-90
2021/09/22 01:35:41;;;;;;;1.30;0.80;;;8.60;97.80;;;;;;4941135;29;20036;-90
2021/09/22 01:38:23;;;;;;;0.73;0.63;;;8.50;97.90;;;;;;4921430;29;20036;-91
2021/09/22 01:40:56;;;;;;;0.70;0.63;;;8.60;98.00;;;;;;4937023;29;20390;-91
2021/09/22 01:43:23;;;;;;;0.55;0.55;;;8.60;97.90;;;;;;4936992;29;20487;-90
2021/09/22 01:45:49;;;;;;;1.13;0.85;;;8.60;97.90;;;;;;4920844;29;20047;-90
2021/09/22 01:48:15;;;;;;;1.15;0.95;;;8.60;97.90;;;;;;4920658;29;20126;-91
2021/09/22 01:50:41;;;;;;;1.27;0.80;;;8.50;97.90;;;;;;4937637;29;20115;-90
2021/09/22 01:53:06;;;;;;;1.13;1.02;;;8.50;97.90;;;;;;4920805;29;20044;-90
2021/09/22 01:55:32;;;;;;;1.38;1.17;;;8.50;98.10;;;;;;4920810;29;20392;-92
2021/09/22 01:57:59;;;;;;;0.90;0.70;;;8.50;98.10;;;;;;4920471;29;20434;-91
2021/09/22 02:00:25;;;;;;;1.23;1.10;;;8.40;98.20;;;;;;4920406;29;20043;-90
2021/09/22 02:02:51;;;;;;;0.80;0.80;;;8.40;98.20;;;;;;4937774;29;20028;-90
2021/09/22 02:05:16;;;;;;;1.80;1.30;;;8.50;98.20;;;;;;4937453;29;20046;-91
2021/09/22 02:07:42;;;;;;;0.98;0.90;;;8.50;98.40;;;;;;4920469;29;20032;-91
2021/09/22 02:10:08;;;;;;;0.90;0.90;;;8.40;98.40;;;;;;4920517;29;20043;-91
2021/09/22 02:12:34;;;;;;;1.17;1.02;;;8.40;98.50;;;;;;4920287;29;20047;-91
2021/09/22 02:15:00;;;;;;;1.60;1.30;;;8.40;98.40;;;;;;4920719;29;20415;-90
2021/09/22 02:17:25;;;;;;;0.70;0.70;;;8.40;98.40;;;;;;4920385;29;20035;-91
2021/09/22 02:19:51;;;;;;;1.02;0.90;;;8.40;98.50;;;;;;4920420;29;20452;-91
2021/09/22 02:22:17;;;;;;;0.73;0.73;;;8.40;98.40;;;;;;4920684;29;20392;-91
2021/09/22 02:24:44;;;;;;;1.75;1.05;;;8.40;98.50;;;;;;4937335;29;20039;-91
2021/09/22 02:27:11;;;;;;;1.55;1.45;;;8.40;98.50;;;;;;4920133;29;20055;-91
2021/09/22 02:29:39;;;;;;;1.35;0.88;;;8.40;98.50;;;;;;4936029;29;20495;-90
2021/09/22 02:32:05;;;;;;;1.38;1.27;;;8.40;98.50;;;;;;4935959;29;20040;-90
2021/09/22 02:34:31;;;;;;;2.15;1.85;;;8.40;98.50;;;;;;4936977;29;20031;-90
2021/09/22 02:36:57;;;;;;;1.23;1.05;;;8.40;98.40;;;;;;4920357;29;20198;-91
2021/09/22 02:39:22;;;;;;;1.33;1.10;;;8.40;98.40;;;;;;4919577;29;20036;-90
2021/09/22 02:41:48;;;;;;;1.67;1.30;;;8.40;98.40;;;;;;4919947;29;20043;-90
2021/09/22 02:44:14;;;;;;;0.93;0.90;;;8.40;98.40;;;;;;4935237;29;20119;-91
2021/09/22 02:46:40;;;;;;;1.65;1.10;;;8.40;98.40;;;;;;4919730;29;20048;-90
2021/09/22 02:49:05;;;;;;;1.30;1.20;;;8.40;98.40;;;;;;4936977;29;20100;-90
2021/09/22 02:51:32;;;;;;;1.95;1.58;;;8.50;98.30;;;;;;4936650;29;20451;-91
2021/09/22 02:53:57;;;;;;;1.38;1.27;;;8.50;98.20;;;;;;4919732;29;20043;-90
2021/09/22 02:56:23;;;;;;;0.98;0.77;;;8.40;98.20;;;;;;4921065;29;20055;-91
2021/09/22 02:58:49;;;;;;;1.63;1.35;;;8.40;98.20;;;;;;4919672;29;20544;-91
2021/09/22 03:01:15;;;;;;;1.75;0.95;;;8.40;98.30;;;;;;4919857;29;20036;-90
2021/09/22 03:03:41;;;;;;;1.60;1.50;;;8.40;98.20;;;;;;4935520;29;20038;-90
2021/09/22 03:06:07;;;;;;;1.65;1.20;;;8.40;98.20;;;;;;4920346;29;20047;-90
2021/09/22 03:08:32;;;;;;;1.17;1.00;;;8.50;98.30;;;;;;4920648;29;20083;-91
2021/09/22 03:11:03;;;;;;;1.08;0.75;;;8.40;98.20;;;;;;4936876;29;20138;-91
2021/09/22 03:13:29;;;;;;;1.80;1.40;;;8.40;98.20;;;;;;4920691;29;20035;-90
2021/09/22 03:15:54;;;;;;;2.72;1.55;;;8.40;98.20;;;;;;4919553;29;20114;-90
2021/09/22 03:18:20;;;;;;;3.35;2.00;;;8.40;98.20;;;;;;4919775;29;20040;-90
2021/09/22 03:20:46;;;;;;;2.55;1.60;;;8.30;98.30;;;;;;4935351;29;20064;-91
2021/09/22 03:23:11;;;;;;;4.10;1.35;;;8.30;98.20;;;;;;4936587;29;20080;-91
2021/09/22 03:25:37;;;;;;;2.53;1.67;;;8.30;98.40;;;;;;4919352;29;20048;-90
2021/09/22 03:28:03;;;;;;;1.38;1.10;;;8.30;98.40;;;;;;4935713;29;20124;-90
2021/09/22 03:30:29;;;;;;;1.45;1.17;;;8.30;98.40;;;;;;4935858;29;20043;-91
2021/09/22 03:32:56;;;;;;;2.38;1.70;;;8.30;98.40;;;;;;4919777;29;20051;-90
2021/09/22 03:35:21;;;;;;;1.75;1.38;;;8.40;98.40;;;;;;4919572;29;20043;-90
2021/09/22 03:37:47;;;;;;;5.18;1.67;;;8.40;98.40;;;;;;4919425;29;20048;-91
2021/09/22 03:40:13;;;;;;;1.73;1.40;;;8.30;98.40;;;;;;4935308;29;20036;-91
2021/09/22 03:42:39;;;;;;;1.90;1.67;;;8.30;98.40;;;;;;4919451;29;20036;-90
2021/09/22 03:45:05;;;;;;;2.40;1.33;;;8.30;98.40;;;;;;4936706;29;20524;-90
2021/09/22 03:47:31;;;;;;;2.20;1.60;;;8.30;98.40;;;;;;4919428;29;20118;-91
2021/09/22 03:49:58;;;;;;;3.35;1.77;;;8.30;98.40;;;;;;4936338;29;20447;-90
2021/09/22 03:52:24;;;;;;;2.05;1.65;;;8.30;98.30;;;;;;4919067;29;20460;-91
2021/09/22 03:54:50;;;;;;;1.50;1.17;;;8.30;98.40;;;;;;4935242;29;20083;-90
2021/09/22 03:57:16;;;;;;;2.28;1.52;;;8.30;98.40;;;;;;4921118;29;20046;-90
2021/09/22 03:59:42;;;;;;;1.08;0.98;;;8.30;98.40;;;;;;4923179;29;20043;-91
2021/09/22 04:02:08;;;;;;;1.73;1.55;;;8.30;98.40;;;;;;4923095;29;20564;-90
2021/09/22 04:04:33;;;;;;;1.38;1.27;;;8.30;98.40;;;;;;4922678;29;20075;-90
2021/09/22 04:06:59;;;;;;;1.38;1.27;;;8.30;98.40;;;;;;4922770;29;20475;-91
2021/09/22 04:09:26;;;;;;;0.98;0.95;;;8.40;98.40;;;;;;4939083;29;20373;-91
2021/09/22 04:11:51;;;;;;;1.65;1.52;;;8.40;98.40;;;;;;4922687;29;20035;-90
2021/09/22 04:14:17;;;;;;;1.75;1.25;;;8.40;98.30;;;;;;4939532;29;20040;-91
2021/09/22 04:16:43;;;;;;;1.52;1.27;;;8.50;98.40;;;;;;4923202;29;20415;-90
2021/09/22 04:19:09;;;;;;;1.80;1.20;;;8.40;98.10;;;;;;4939575;29;20476;-91
2021/09/22 04:21:34;;;;;;;1.77;1.38;;;8.40;98.00;;;;;;4939303;29;20068;-91
2021/09/22 04:24:00;;;;;;;1.33;1.23;;;8.40;98.00;;;;;;4922341;29;20472;-90
2021/09/22 04:26:26;;;;;;;1.38;1.02;;;8.50;98.00;;;;;;4922314;29;20135;-90
2021/09/22 04:28:52;;;;;;;1.38;1.10;;;8.40;98.00;;;;;;4922224;29;20083;-91
2021/09/22 04:31:18;;;;;;;2.85;1.83;;;8.50;98.00;;;;;;4922600;29;20130;-91
2021/09/22 04:33:44;;;;;;;1.80;1.15;;;8.50;97.90;;;;;;4939216;29;20035;-90
2021/09/22 04:36:11;;;;;;;2.22;1.58;;;8.50;97.80;;;;;;4922319;29;20046;-90
2021/09/22 04:38:37;;;;;;;2.17;1.50;;;8.50;97.80;;;;;;4939347;29;20098;-90
2021/09/22 04:41:02;;;;;;;1.23;1.13;;;8.50;97.80;;;;;;4923749;29;20035;-90
2021/09/22 04:43:28;;;;;;;2.05;1.50;;;8.50;97.80;;;;;;4923256;29;20464;-91
2021/09/22 04:45:54;;;;;;;2.67;2.05;;;8.60;97.80;;;;;;4921899;29;20051;-91
2021/09/22 04:48:19;;;;;;;2.45;1.65;;;8.60;97.70;;;;;;4922181;29;20043;-90
2021/09/22 04:50:45;;;;;;;3.35;2.03;;;8.60;97.70;;;;;;4922175;29;20094;-90
2021/09/22 04:53:11;;;;;;;1.80;1.60;;;8.50;97.70;;;;;;4939471;29;20356;-90
2021/09/22 04:55:37;;;;;;;2.08;1.40;;;8.60;97.70;;;;;;4921554;29;20123;-90
2021/09/22 04:58:02;;;;;;;2.05;1.13;;;8.50;97.70;;;;;;4921961;29;20046;-90
2021/09/22 05:00:28;;;;;;;2.35;1.63;;;8.60;97.70;;;;;;4922085;29;20036;-91
2021/09/22 05:02:54;;;;;;;2.97;1.60;;;8.60;97.60;;;;;;4921710;29;20118;-90
2021/09/22 05:05:20;;;;;;;3.10;1.50;;;8.60;97.60;;;;;;4921877;29;20036;-90
2021/09/22 05:07:45;;;;;;;1.98;1.50;;;8.60;97.50;;;;;;4920799;29;20071;-91
2021/09/22 05:10:11;;;;;;;2.47;2.00;;;8.70;97.40;;;;;;4937599;29;20035;-91
2021/09/22 05:12:37;;;;;;;1.42;1.13;;;8.70;97.30;;;;;;4938539;29;20024;-91
2021/09/22 05:15:04;;;;;;;1.50;1.23;;;8.70;97.20;;;;;;4921257;29;20135;-90
2021/09/22 05:17:30;;;;;;;1.77;1.27;;;8.80;97.30;;;;;;4920979;29;20032;-89
2021/09/22 05:19:56;;;;;;;1.63;1.50;;;8.80;97.30;;;;;;4938188;29;20038;-90
2021/09/22 05:22:22;;;;;;;1.98;1.60;;;9.00;97.20;;;;;;4921936;29;20059;-89
2021/09/22 05:24:48;;;;;;;1.77;1.30;;;9.00;96.80;;;;;;4921178;29;20122;-89
2021/09/22 05:27:13;;;;;;;1.55;1.45;;;9.10;96.70;;;;;;4938504;29;20475;-89
2021/09/22 05:29:39;;;;;;;1.92;1.63;;;9.10;96.50;;;;;;4921137;29;20067;-89
2021/09/22 05:32:05;;;;;;;11.38;2.17;;;9.20;96.10;;;;;;4937922;29;20024;-89
2021/09/22 05:34:31;;;;;;;2.58;1.80;;;9.10;96.00;;;;;;4921032;29;20039;-89
2021/09/22 05:36:57;;;;;;;2.35;1.95;;;9.20;95.80;;;;;;4920959;29;20544;-89
2021/09/22 05:39:23;;;;;;;1.80;1.50;;;9.20;96.00;;;;;;4937923;29;20032;-89
2021/09/22 05:41:49;;;;;;;2.05;1.58;;;9.20;95.90;;;;;;4920796;29;20047;-89
2021/09/22 05:44:15;;;;;;;2.53;1.90;;;9.30;95.80;;;;;;4922605;29;20471;-89
2021/09/22 05:46:41;;;;;;;2.40;1.88;;;9.30;95.60;;;;;;4920513;29;20044;-89
2021/09/22 05:49:07;;;;;;;3.55;2.10;;;9.30;95.20;;;;;;4936700;29;20046;-89
2021/09/22 05:51:33;;;;;;;2.28;1.83;;;9.40;95.30;;;;;;4920555;29;20095;-89
2021/09/22 05:53:59;;;;;;;2.42;2.03;;;9.40;95.40;;;;;;4921055;29;20371;-90
2021/09/22 05:56:25;;;;;;;1.90;1.50;;;9.50;94.90;;;;;;4920892;29;20042;-89
2021/09/22 05:58:51;;;;;;;1.58;1.48;;;9.50;94.90;;;;;;4921897;29;20491;-89
2021/09/22 06:01:17;;;;;;;1.50;1.40;;;9.50;94.80;;;;;;4920529;29;20146;-90
2021/09/22 06:03:43;;;;;;;1.73;1.45;;;9.50;95.00;;;;;;4937488;29;20096;-90
2021/09/22 06:06:09;;;;;;;1.98;1.63;;;9.50;94.50;;;;;;4937638;29;20039;-90
2021/09/22 06:08:35;;;;;;;1.65;1.52;;;9.50;94.40;;;;;;4920790;29;20043;-90
2021/09/22 06:11:01;;;;;;;3.13;2.10;;;9.50;94.40;;;;;;4920589;29;20047;-89
2021/09/22 06:13:28;;;;;;;1.85;1.65;;;9.50;94.20;;;;;;4941574;29;20047;-90
2021/09/22 06:15:54;;;;;;;1.73;1.23;;;9.60;94.00;;;;;;4949813;29;20047;-89
2021/09/22 06:18:20;;;;;;;2.80;1.83;;;9.60;94.30;;;;;;4934638;29;20035;-90
2021/09/22 06:20:46;;;;;;;1.88;1.75;;;9.70;94.30;;;;;;4922984;29;20411;-90
2021/09/22 06:23:13;;;;;;;2.25;1.88;;;9.70;94.20;;;;;;4920844;29;20475;-90
2021/09/22 06:25:39;;;;;;;2.47;1.88;;;9.70;93.80;;;;;;4937371;29;20039;-90
2021/09/22 06:28:04;;;;;;;2.38;2.17;;;9.70;93.90;;;;;;4920330;29;20369;-89
2021/09/22 06:30:30;;;;;;;1.65;1.55;;;9.70;93.90;;;;;;4936704;29;20031;-90
2021/09/22 06:32:56;;;;;;;2.03;1.63;;;9.70;93.80;;;;;;4920124;29;20035;-90
2021/09/22 06:35:22;;;;;;;3.03;2.28;;;9.80;93.90;;;;;;4920103;29;20044;-90
2021/09/22 06:37:50;;;;;;;4.13;2.20;;;9.80;93.90;;;;;;4919860;29;20147;-90
2021/09/22 06:40:21;;;;;;;2.42;2.15;;;9.70;93.60;;;;;;4919739;29;20135;-90
2021/09/22 06:42:47;;;;;;;2.35;1.77;;;9.60;93.60;;;;;;4936840;29;20424;-90
2021/09/22 06:45:15;;;;;;;2.53;2.05;;;9.60;93.80;;;;;;4919066;29;20474;-90
2021/09/22 06:47:40;;;;;;;2.67;2.17;;;9.60;93.90;;;;;;4935542;29;20055;-90
2021/09/22 06:50:07;;;;;;;2.20;2.00;;;9.60;93.70;;;;;;4919853;29;20035;-89
2021/09/22 06:52:34;;;;;;;1.95;1.70;;;9.60;93.70;;;;;;4919595;29;20085;-90
2021/09/22 06:55:01;;;;;;;2.50;1.70;;;9.70;93.50;;;;;;4918585;29;20068;-90
2021/09/22 06:57:27;;;;;;;4.20;1.67;;;9.60;93.40;;;;;;4921582;29;20040;-90
2021/09/22 06:59:53;;;;;;;1.92;1.55;;;9.70;93.50;;;;;;4925192;29;20043;-90
2021/09/22 07:02:18;;;;;;;7.15;1.90;;;9.70;93.20;;;;;;4922990;29;20043;-90
2021/09/22 07:04:44;;;;;;;3.70;2.30;;;9.70;93.20;;;;;;4941905;29;20036;-91
2021/09/22 07:07:10;;;;;;;1.75;1.65;;;9.70;93.30;;;;;;4926704;29;20090;-92
2021/09/22 07:09:36;;;;;;;2.83;1.88;;;9.80;93.30;;;;;;4943058;29;20387;-92
2021/09/22 07:12:03;;;;;;;3.70;2.85;;;9.90;92.70;;;;;;4943863;29;20051;-92
2021/09/22 07:14:29;;;;;;;3.30;2.60;;;9.90;92.70;;;;;;4928857;29;20051;-91
2021/09/22 07:16:55;;;;;;;3.17;2.65;;;9.90;92.50;;;;;;4943754;29;20035;-93
2021/09/22 07:19:23;;;;;;;4.00;2.75;;;10.00;92.40;;;;;;4942266;29;20143;-90
2021/09/22 07:21:48;;;;;;;3.55;2.38;;;10.00;92.30;;;;;;4943516;29;20036;-91
2021/09/22 07:24:14;;;;;;;3.40;2.20;;;10.10;92.60;;;;;;4942141;29;21441;-92
2021/09/22 07:26:40;;;;;;;5.05;3.03;;;10.20;92.70;;;;;;4942762;29;20063;-91
2021/09/22 07:29:07;;;;;;;4.25;3.08;;;10.40;92.30;;;;;;4949998;29;20031;-93
2021/09/22 07:31:34;;;;;;;3.58;3.03;;;10.50;92.10;;;;;;4956036;29;20050;-92
2021/09/22 07:33:59;;;;;;;5.93;4.40;;;10.60;91.50;;;;;;4948126;29;20023;-91
2021/09/22 07:36:25;;;;;;;5.22;3.97;;;10.70;91.00;;;;;;4948955;29;20033;-90
2021/09/22 07:38:51;;;;;;;5.68;3.88;;;10.70;90.60;;;;;;4944529;29;20027;-90
2021/09/22 07:41:17;;;;;;;4.28;2.97;;;10.70;90.40;;;;;;4947963;29;20500;-92
2021/09/22 07:43:43;;;;;;;4.38;3.05;;;10.70;90.50;;;;;;4948729;29;20098;-91
2021/09/22 07:46:08;;;;;;;4.20;3.17;;;10.70;90.90;;;;;;4944085;29;20047;-88
2021/09/22 07:48:36;;;;;;;5.68;4.05;;;10.80;90.80;;;;;;4944191;29;20087;-90
2021/09/22 07:51:03;;;;;;;4.57;3.53;;;10.80;90.40;;;;;;4942178;29;20048;-88
2021/09/22 07:53:29;;;;;;;4.70;3.90;;;10.80;90.30;;;;;;4946119;29;20031;-88
2021/09/22 07:55:57;;;;;;;4.10;3.15;;;10.80;90.30;;;;;;4945249;29;20187;-89
2021/09/22 07:58:22;;;;;;;6.78;3.95;;;10.80;90.40;;;;;;4929824;29;20040;-90
2021/09/22 08:00:48;;;;;;;4.95;3.75;;;10.90;90.50;;;;;;4940975;29;20063;-89
2021/09/22 08:03:15;;;;;;;3.85;3.38;;;11.00;90.40;;;;;;4946875;29;20118;-88
2021/09/22 08:05:43;;;;;;;4.97;3.60;;;11.10;90.50;;;;;;4946117;29;20044;-90
2021/09/22 08:08:10;;;;;;;4.68;3.17;;;11.20;90.30;;;;;;4946234;29;20100;-89
2021/09/22 08:13:34;;;;;;;6.15;3.58;;;11.40;90.00;;;;;;4951680;29;20046;-90
2021/09/22 08:16:00;;;;;;;5.22;3.92;;;11.40;88.70;;;;;;4930724;29;20484;-87
2021/09/22 08:18:26;;;;;;;6.28;3.60;;;11.40;87.40;;;;;;4929824;29;20412;-88
2021/09/22 08:20:52;;;;;;;7.18;4.85;;;11.40;87.70;;;;;;4930182;29;20171;-91
2021/09/22 08:23:19;;;;;;;5.20;3.53;;;11.30;86.90;;;;;;4942699;29;20552;-90
2021/09/22 08:25:45;;;;;;;8.15;5.22;;;11.20;87.20;;;;;;4923501;29;20101;-88
2021/09/22 08:28:11;;;;;;;6.15;4.53;;;11.10;87.30;;;;;;4922697;29;20091;-88
2021/09/22 08:30:37;;;;;;;5.80;4.43;;;11.00;87.00;;;;;;4928940;29;20040;-89
2021/09/22 08:33:03;;;;;;;5.93;4.40;;;10.90;87.20;;;;;;4910871;29;20499;-89
2021/09/22 08:35:29;;;;;;;5.82;4.60;;;10.80;87.70;;;;;;4939406;29;20052;-90
2021/09/22 08:37:55;;;;;;;5.32;4.03;;;10.80;88.10;;;;;;4941346;29;20103;-90
2021/09/22 08:40:21;;;;;;;6.53;4.85;;;10.60;88.30;;;;;;4942014;29;20067;-89
2021/09/22 08:42:47;;;;;;;5.05;4.15;;;10.60;88.50;;;;;;4935563;29;20109;-90
2021/09/22 08:45:16;;;;;;;6.22;4.40;;;10.50;89.10;;;;;;4923310;29;20044;-89
2021/09/22 08:47:44;;;;;;;6.18;4.63;;;10.50;89.70;;;;;;4929203;29;20039;-89
2021/09/22 08:50:15;;;;;;;5.25;4.13;;;10.50;89.90;;;;;;4927487;29;20039;-89
2021/09/22 08:52:44;;;;;;;4.68;3.85;;;10.70;89.50;;;;;;4942091;29;20071;-89
2021/09/22 08:55:10;;;;;;;6.80;3.88;;;10.70;89.40;;;;;;4940637;29;20068;-91
2021/09/22 08:57:36;;;;;;;5.97;3.92;;;10.90;89.50;;;;;;4940299;29;20115;-89
2021/09/22 09:00:03;;;;;;;4.95;3.30;;;11.10;88.00;;;;;;4924076;29;20439;-92
2021/09/22 09:02:40;;;;;;;4.32;3.35;;;11.10;87.40;;;;;;4926929;29;20102;-91
2021/09/22 09:05:11;;;;;;;4.05;3.28;;;11.20;87.00;;;;;;4922644;29;20036;-91
2021/09/22 09:07:55;;;;;;;5.30;3.35;;;11.30;86.90;;;;;;4924946;29;20083;-90
2021/09/22 09:11:01;;;;;;;;;;;11.50;85.50;;;;;;4925375;29;20036;-91
2021/09/22 09:13:28;;;;;;;4.50;3.03;;;11.60;85.60;;;;;;4927523;29;19914;-91
2021/09/22 09:15:57;;;;;;;3.65;3.10;;;11.80;85.10;;;;;;4921981;29;20035;-91
2021/09/22 09:18:25;;;;;;;4.75;3.92;;;11.90;84.50;;;;;;4925293;29;20035;-90
2021/09/22 09:20:53;;;;;;;5.38;3.53;;;11.90;83.40;;;;;;4937152;29;20035;-93
2021/09/22 09:23:22;;;;;;;4.68;3.63;;;11.90;83.40;;;;;;4940725;29;20140;-92
2021/09/22 09:25:57;;;;;;;5.80;3.65;;;12.00;82.60;;;;;;4923839;29;20542;-92
2021/09/22 09:28:24;;;;;;;5.50;4.30;;;12.00;82.60;;;;;;4924465;29;20075;-91
2021/09/22 09:30:59;;;;;;;5.38;4.13;;;12.10;82.40;;;;;;4924112;29;20032;-94
2021/09/22 09:33:39;;;;;;;5.80;4.88;;;12.20;82.50;;;;;;4926122;29;20067;-94
2021/09/22 09:36:23;;;;;;;5.30;4.28;;;12.20;80.60;;;;;;4922749;29;20040;-93
2021/09/22 09:38:49;;;;;;;;;;;12.20;79.00;;;;;;4939166;29;20035;-94
2021/09/22 09:41:30;;;;;;;4.97;4.05;;;12.20;78.60;;;;;;4939788;29;19911;-89
2021/09/22 09:43:57;;;;;;;6.07;4.65;;;12.30;81.40;;;;;;4921170;29;20036;-90
2021/09/22 09:46:25;;;;;;;5.00;3.70;;;12.40;80.60;;;;;;4920965;29;20087;-91
2021/09/22 09:49:03;;;;;;;8.38;5.30;;;12.40;78.80;;;;;;4936164;29;20048;-92
2021/09/22 09:51:38;;;;;;;5.47;4.20;;;12.40;79.70;;;;;;4945384;29;20036;-92
2021/09/22 09:54:10;;;;;;;5.25;3.78;;;12.40;78.90;;;;;;4939711;29;20088;-93
2021/09/22 09:56:40;;;;;;;4.65;3.80;;;12.50;79.90;;;;;;4939270;29;20047;-91
2021/09/22 09:59:07;;;;;;;5.05;3.42;;;12.60;79.50;;;;;;4933219;29;20072;-90
2021/09/22 10:01:40;;;;;;;4.72;3.35;;;12.70;79.00;;;;;;4940829;29;20047;-89
2021/09/22 10:04:08;;;;;;;5.13;3.38;;;12.70;78.40;;;;;;4938192;29;20134;-90
2021/09/22 10:06:34;;;;;;;4.35;3.70;;;12.60;77.80;;;;;;4916531;29;20054;-91
2021/09/22 10:09:01;;;;;;;5.00;3.00;;;12.60;77.60;;;;;;4917599;29;20123;-89
2021/09/22 10:11:26;;;;;;;3.75;3.13;;;12.50;78.00;;;;;;4916588;29;20111;-90
2021/09/22 10:13:54;;;;;;;3.35;2.90;;;12.40;77.60;;;;;;4916672;29;20032;-89
2021/09/22 10:16:20;;;;;;;6.85;3.05;;;12.30;77.50;;;;;;4902137;29;20040;-91
2021/09/22 10:18:49;;;;;;;3.13;2.60;;;12.10;77.70;;;;;;4911675;29;20040;-90
2021/09/22 10:21:19;;;;;;;3.03;2.30;;;12.10;78.70;;;;;;4931143;29;20039;-90
2021/09/22 10:23:46;;;;;;;5.00;2.97;;;12.00;79.00;;;;;;4938898;29;20036;-90
2021/09/22 10:26:13;;;;;;;3.13;2.83;;;12.10;78.70;;;;;;4921392;29;20100;-91
2021/09/22 10:28:45;;;;;;;3.85;3.03;;;12.10;78.60;;;;;;4917672;29;20036;-91
2021/09/22 10:31:25;;;;;;;2.90;2.58;;;12.20;78.40;;;;;;4927873;29;20051;-90
2021/09/22 10:33:51;;;;;;;4.40;3.35;;;12.20;78.20;;;;;;4919175;29;20042;-89
2021/09/22 10:36:38;;;;;;;3.63;3.20;;;12.10;77.60;;;;;;4937072;29;20074;-90
2021/09/22 10:39:05;;;;;;;3.90;3.28;;;12.00;77.00;;;;;;4924073;29;20107;-91
2021/09/22 10:41:38;;;;;;;3.33;2.85;;;11.90;77.80;;;;;;4939101;29;20426;-88
2021/09/22 10:44:04;;;;;;;2.67;2.27;;;11.70;78.20;;;;;;4918658;29;20076;-91
2021/09/22 10:46:33;;;;;;;2.92;2.38;;;11.60;78.20;;;;;;4930861;29;20039;-89
2021/09/22 10:49:09;;;;;;;2.28;1.92;;;11.40;78.70;;;;;;4938541;29;20047;-92
2021/09/22 10:51:54;;;;;;;3.17;2.10;;;11.30;78.70;;;;;;4952777;29;20035;-92
2021/09/22 10:54:23;;;;;;;1.75;1.60;;;11.20;79.20;;;;;;4931552;29;20043;-90
2021/09/22 10:57:01;;;;;;;2.15;1.95;;;11.10;79.90;;;;;;4930481;29;20040;-92
2021/09/22 10:59:31;;;;;;;2.45;2.20;;;11.10;80.20;;;;;;4944733;29;20032;-91
2021/09/22 11:01:59;;;;;;;2.58;1.83;;;11.00;80.60;;;;;;4951844;29;20588;-90
2021/09/22 11:04:44;;;;;;;2.50;1.98;;;11.00;80.80;;;;;;4953960;29;20039;-92
2021/09/22 11:13:22;;;;;;;3.92;2.10;;;11.20;81.60;;;;;;4937320;29;20092;-92
2021/09/22 11:16:11;;;;;;;3.50;2.50;;;11.40;81.50;;;;;;4929799;29;20043;-92
2021/09/22 11:19:22;;;;;;;3.50;2.28;;;11.60;81.30;;;;;;4923505;29;20059;-92
2021/09/22 11:21:49;;;;;;;3.65;2.33;;;11.70;80.00;;;;;;4921147;29;20040;-93
2021/09/22 11:24:21;;;;;;;2.85;2.35;;;11.90;80.60;;;;;;4922258;29;20033;-95
2021/09/22 11:26:53;;;;;;;2.00;1.80;;;12.10;80.10;;;;;;4933549;29;20040;-95
2021/09/22 11:29:34;;;;;;;2.10;1.90;;;12.30;79.60;;;;;;4932522;29;20037;-92
2021/09/22 11:32:08;;;;;;;2.85;2.10;;;12.50;80.00;;;;;;4930020;29;20103;-94
2021/09/22 11:34:40;;;;;;;3.97;2.40;;;12.60;78.00;;;;;;4930994;29;20039;-93
2021/09/22 11:37:12;;;;;;;3.05;2.00;;;12.60;77.20;;;;;;4929866;29;20055;-91
2021/09/22 11:39:41;;;;;;;2.43;1.90;;;12.60;76.80;;;;;;4921509;29;20464;-89
2021/09/22 11:42:10;;;;;;;2.63;2.42;;;12.50;76.50;;;;;;4922007;29;20044;-90
2021/09/22 11:44:37;;;;;;;4.22;2.95;;;12.30;75.60;;;;;;4916990;29;20059;-91
2021/09/22 11:47:09;;;;;;;2.80;2.20;;;12.10;75.80;;;;;;4908974;29;20060;-90
2021/09/22 11:49:37;;;;;;;2.95;2.53;;;11.90;76.30;;;;;;4922657;29;20104;-90
2021/09/22 11:52:05;;;;;;;2.40;2.17;;;11.80;76.80;;;;;;4924008;29;20048;-90
2021/09/22 11:54:34;;;;;;;3.75;2.97;;;11.70;77.10;;;;;;4907342;29;20052;-91
2021/09/22 11:57:05;;;;;;;3.60;2.75;;;11.60;77.20;;;;;;4924945;29;20036;-96
2021/09/22 11:59:35;;;;;;;5.93;3.35;;;11.40;77.70;;;;;;4940999;29;20047;-93
2021/09/22 12:02:02;;;;;;;4.18;3.60;;;11.30;78.50;;;;;;4926913;29;20123;-95
2021/09/22 12:04:36;;;;;;;4.22;2.97;;;11.20;78.90;;;;;;4925283;29;20127;-93
2021/09/22 12:07:04;;;;;;;2.75;2.42;;;11.20;79.40;;;;;;4925064;29;20051;-92
2021/09/22 12:09:47;;;;;;;4.18;2.83;;;11.20;79.50;;;;;;4923524;29;20032;-91
2021/09/22 12:12:18;;;;;;;4.82;2.60;;;11.20;79.70;;;;;;4937777;29;20146;-92
2021/09/22 12:14:55;;;;;;;3.55;2.45;;;11.20;80.00;;;;;;4942593;29;20039;-91
2021/09/22 12:17:27;;;;;;;3.17;2.47;;;11.20;79.60;;;;;;4927902;29;20050;-93
2021/09/22 12:19:54;;;;;;;3.03;2.20;;;11.20;79.60;;;;;;4948998;29;20038;-92
2021/09/22 12:22:35;;;;;;;2.60;2.25;;;11.20;79.70;;;;;;4946187;29;20100;-92
2021/09/22 12:25:02;;;;;;;2.63;1.95;;;11.10;80.10;;;;;;4929622;29;20067;-93
2021/09/22 12:27:30;;;;;;;2.63;2.05;;;11.10;80.30;;;;;;4961189;29;20051;-93
2021/09/22 12:30:08;;;;;;;3.05;2.25;;;11.20;80.40;;;;;;4966438;29;20067;-92
2021/09/22 12:32:55;;;;;;;2.75;2.00;;;11.20;80.50;;;;;;4950211;29;20039;-92
2021/09/22 12:35:26;;;;;;;2.53;2.05;;;11.20;80.60;;;;;;4948158;29;20047;-93
2021/09/22 12:37:54;;;;;;;5.88;1.80;;;11.20;80.50;;;;;;4947257;29;20062;-90
2021/09/22 12:40:26;;;;;;;2.63;2.03;;;11.20;80.60;;;;;;4944969;29;20035;-91
2021/09/22 12:42:52;;;;;;;2.40;1.90;;;11.20;80.70;;;;;;4945305;29;20467;-90
2021/09/22 12:45:27;;;;;;;2.08;1.88;;;11.10;80.90;;;;;;4945645;29;20067;-90
2021/09/22 12:47:59;;;;;;;1.55;1.40;;;11.10;80.90;;;;;;4946469;29;20036;-89
2021/09/22 12:50:32;;;;;;;2.00;1.55;;;11.10;81.10;;;;;;4945083;29;20067;-90
2021/09/22 12:53:13;;;;;;;2.60;1.95;;;11.10;81.30;;;;;;4946408;29;20084;-89
2021/09/22 12:55:46;;;;;;;2.80;1.90;;;11.10;81.30;;;;;;4945025;29;20155;-90
2021/09/22 12:58:23;;;;;;;2.95;2.30;;;11.10;81.30;;;;;;4945654;29;20136;-89
2021/09/22 13:00:56;;;;;;;3.38;2.45;;;11.10;81.30;;;;;;4929150;29;20415;-91
2021/09/22 13:03:25;;;;;;;2.47;1.98;;;11.00;81.50;;;;;;4927779;29;20039;-89
2021/09/22 13:05:54;;;;;;;2.25;2.05;;;10.90;81.90;;;;;;4946052;29;20048;-91